To NAV CANADA Home Page Login to a new session Search on AWWS site Feedback and Comments Disclaimer Vers la page française équivalente Tips FAQ What's new on the site To the Forecasts and Observations / NOTAM section To "File a Flight Plan" website Publications and other links Update of the User's profile FIC Telephone Numbers My Weather Data Folder Route Weather Data Regional Weather Data Local Weather Data To the Forecasts and Observations / NOTAM section
Request Generated 08/22/2017 at 01:33:46 UTC . Weather information available at that time is displayed.

METAR/TAF

MAYO/YT    

METAR CYMA 220100Z 09008KT 20SM BKN064 BKN080 18/07 A2976 RMK SC5AC2
SLP090 DENSITY ALT 2600FT=
METAR CYMA 220000Z CCA 08007G15KT 20SM BKN050 BKN075 18/07 A2977 RMK
SC5AC2 CLIMAT17.7/13.7TR MM SLP092 DENSITY ALT 2600FT=
METAR CYMA 220000Z 08007G15KT 20SM BKN050 BKN075 18/07 A2977 RMK
SC5AC2 CLIMAT17.7/13.7/0.0 SLP092 DENSITY ALT 2600FT=
METAR CYMA 212300Z 08011KT 20SM BKN060 BKN140 17/07 A2977 RMK SC6AC1
SLP097 DENSITY ALT 2500FT=

TAF CYMA 212338Z 2200/2212 07005KT P6SM FEW040 SCT060 BKN140 TEMPO
2200/2212 P6SM -SHRA SCT040 OVC060
RMK NXT FCST BY 220600Z=
Your time UTC time
Weather data provided by Environment Canada and NAV CANADA